sensor_id;sensor_type;location;lat;lon;timestamp;P1;durP1;ratioP1;P2;durP2;ratioP2
13309;SDS011;6723;48.256;16.402;2023-11-22T00:01:21;7.80;;;6.57;;
13309;SDS011;6723;48.256;16.402;2023-11-22T00:03:47;8.73;;;6.77;;
13309;SDS011;6723;48.256;16.402;2023-11-22T00:06:13;8.93;;;7.47;;
13309;SDS011;6723;48.256;16.402;2023-11-22T00:08:39;8.50;;;6.93;;
13309;SDS011;6723;48.256;16.402;2023-11-22T00:11:05;10.10;;;7.80;;
13309;SDS011;6723;48.256;16.402;2023-11-22T00:13:30;11.27;;;8.07;;
13309;SDS011;6723;48.256;16.402;2023-11-22T00:15:57;10.70;;;8.37;;
13309;SDS011;6723;48.256;16.402;2023-11-22T00:18:23;11.03;;;7.93;;
13309;SDS011;6723;48.256;16.402;2023-11-22T00:20:49;10.53;;;8.17;;
13309;SDS011;6723;48.256;16.402;2023-11-22T00:23:15;11.53;;;9.30;;
13309;SDS011;6723;48.256;16.402;2023-11-22T00:25:41;13.40;;;9.10;;
13309;SDS011;6723;48.256;16.402;2023-11-22T00:28:07;13.57;;;9.47;;
13309;SDS011;6723;48.256;16.402;2023-11-22T00:30:33;11.70;;;9.53;;
13309;SDS011;6723;48.256;16.402;2023-11-22T00:32:59;13.23;;;10.27;;
13309;SDS011;6723;48.256;16.402;2023-11-22T00:35:25;11.77;;;9.40;;
13309;SDS011;6723;48.256;16.402;2023-11-22T00:37:50;12.60;;;10.33;;
13309;SDS011;6723;48.256;16.402;2023-11-22T00:40:16;13.80;;;9.87;;
13309;SDS011;6723;48.256;16.402;2023-11-22T00:42:42;12.43;;;10.07;;
13309;SDS011;6723;48.256;16.402;2023-11-22T00:45:09;13.20;;;10.53;;
13309;SDS011;6723;48.256;16.402;2023-11-22T00:47:35;11.70;;;9.40;;
13309;SDS011;6723;48.256;16.402;2023-11-22T00:50:02;12.20;;;9.33;;
13309;SDS011;6723;48.256;16.402;2023-11-22T00:52:31;11.37;;;8.80;;
13309;SDS011;6723;48.256;16.402;2023-11-22T00:54:57;12.47;;;8.90;;
13309;SDS011;6723;48.256;16.402;2023-11-22T00:57:23;11.37;;;8.70;;
13309;SDS011;6723;48.256;16.402;2023-11-22T00:59:49;10.73;;;8.53;;
13309;SDS011;6723;48.256;16.402;2023-11-22T01:02:15;9.07;;;7.77;;
13309;SDS011;6723;48.256;16.402;2023-11-22T01:04:41;8.03;;;6.50;;
13309;SDS011;6723;48.256;16.402;2023-11-22T01:07:06;8.87;;;7.37;;
13309;SDS011;6723;48.256;16.402;2023-11-22T01:09:32;8.20;;;6.57;;
13309;SDS011;6723;48.256;16.402;2023-11-22T01:11:59;7.07;;;5.53;;
13309;SDS011;6723;48.256;16.402;2023-11-22T01:14:25;7.27;;;5.83;;
13309;SDS011;6723;48.256;16.402;2023-11-22T01:16:52;7.00;;;5.70;;
13309;SDS011;6723;48.256;16.402;2023-11-22T01:19:21;7.97;;;6.00;;
13309;SDS011;6723;48.256;16.402;2023-11-22T01:21:50;6.70;;;5.50;;
13309;SDS011;6723;48.256;16.402;2023-11-22T01:24:16;6.57;;;5.70;;
13309;SDS011;6723;48.256;16.402;2023-11-22T01:26:42;7.67;;;6.03;;
13309;SDS011;6723;48.256;16.402;2023-11-22T01:29:08;7.87;;;5.93;;
13309;SDS011;6723;48.256;16.402;2023-11-22T01:31:33;8.43;;;6.17;;
13309;SDS011;6723;48.256;16.402;2023-11-22T01:33:59;7.07;;;5.97;;
13309;SDS011;6723;48.256;16.402;2023-11-22T01:36:25;7.17;;;5.70;;
13309;SDS011;6723;48.256;16.402;2023-11-22T01:38:52;10.20;;;6.53;;
13309;SDS011;6723;48.256;16.402;2023-11-22T01:41:18;7.07;;;5.97;;
13309;SDS011;6723;48.256;16.402;2023-11-22T01:43:44;8.10;;;6.47;;
13309;SDS011;6723;48.256;16.402;2023-11-22T01:46:16;7.57;;;6.37;;
13309;SDS011;6723;48.256;16.402;2023-11-22T01:48:48;7.40;;;5.73;;
13309;SDS011;6723;48.256;16.402;2023-11-22T01:51:15;7.97;;;6.43;;
13309;SDS011;6723;48.256;16.402;2023-11-22T01:53:41;8.10;;;6.23;;
13309;SDS011;6723;48.256;16.402;2023-11-22T01:56:07;6.43;;;5.70;;
13309;SDS011;6723;48.256;16.402;2023-11-22T01:58:34;8.00;;;5.67;;
13309;SDS011;6723;48.256;16.402;2023-11-22T02:01:00;8.40;;;5.90;;
13309;SDS011;6723;48.256;16.402;2023-11-22T02:03:29;7.53;;;5.70;;
13309;SDS011;6723;48.256;16.402;2023-11-22T02:05:55;7.47;;;5.30;;
13309;SDS011;6723;48.256;16.402;2023-11-22T02:08:21;6.97;;;5.47;;
13309;SDS011;6723;48.256;16.402;2023-11-22T02:10:56;6.63;;;5.50;;
13309;SDS011;6723;48.256;16.402;2023-11-22T02:13:23;6.27;;;5.23;;
13309;SDS011;6723;48.256;16.402;2023-11-22T02:15:49;7.23;;;4.93;;
13309;SDS011;6723;48.256;16.402;2023-11-22T02:18:17;5.50;;;5.00;;
13309;SDS011;6723;48.256;16.402;2023-11-22T02:20:43;6.57;;;5.20;;
13309;SDS011;6723;48.256;16.402;2023-11-22T02:23:10;6.40;;;5.43;;
13309;SDS011;6723;48.256;16.402;2023-11-22T02:25:36;5.37;;;4.63;;
13309;SDS011;6723;48.256;16.402;2023-11-22T02:28:02;6.60;;;5.60;;
13309;SDS011;6723;48.256;16.402;2023-11-22T02:30:29;6.00;;;5.40;;
13309;SDS011;6723;48.256;16.402;2023-11-22T02:32:54;6.83;;;5.50;;
13309;SDS011;6723;48.256;16.402;2023-11-22T02:35:20;6.47;;;5.77;;
13309;SDS011;6723;48.256;16.402;2023-11-22T02:37:46;5.83;;;5.23;;
13309;SDS011;6723;48.256;16.402;2023-11-22T02:40:17;6.53;;;5.77;;
13309;SDS011;6723;48.256;16.402;2023-11-22T02:42:45;7.67;;;6.40;;
13309;SDS011;6723;48.256;16.402;2023-11-22T02:45:15;6.67;;;5.40;;
13309;SDS011;6723;48.256;16.402;2023-11-22T02:47:42;6.93;;;5.93;;
13309;SDS011;6723;48.256;16.402;2023-11-22T02:50:12;6.20;;;5.33;;
13309;SDS011;6723;48.256;16.402;2023-11-22T02:52:39;7.00;;;5.60;;
13309;SDS011;6723;48.256;16.402;2023-11-22T02:55:05;8.23;;;6.00;;
13309;SDS011;6723;48.256;16.402;2023-11-22T02:57:31;7.23;;;5.77;;
13309;SDS011;6723;48.256;16.402;2023-11-22T02:59:57;6.70;;;5.57;;
13309;SDS011;6723;48.256;16.402;2023-11-22T03:02:23;6.10;;;5.50;;
13309;SDS011;6723;48.256;16.402;2023-11-22T03:04:52;6.87;;;5.43;;
13309;SDS011;6723;48.256;16.402;2023-11-22T03:07:18;6.13;;;5.33;;
13309;SDS011;6723;48.256;16.402;2023-11-22T03:09:46;6.27;;;5.00;;
13309;SDS011;6723;48.256;16.402;2023-11-22T03:12:13;6.70;;;5.37;;
13309;SDS011;6723;48.256;16.402;2023-11-22T03:14:39;5.73;;;5.13;;
13309;SDS011;6723;48.256;16.402;2023-11-22T03:17:05;5.93;;;5.20;;
13309;SDS011;6723;48.256;16.402;2023-11-22T03:19:31;5.80;;;5.07;;
13309;SDS011;6723;48.256;16.402;2023-11-22T03:22:00;5.83;;;5.20;;
13309;SDS011;6723;48.256;16.402;2023-11-22T03:24:29;6.70;;;5.10;;
13309;SDS011;6723;48.256;16.402;2023-11-22T03:26:55;6.93;;;5.10;;
13309;SDS011;6723;48.256;16.402;2023-11-22T03:29:24;5.60;;;4.83;;
13309;SDS011;6723;48.256;16.402;2023-11-22T03:31:51;6.77;;;4.90;;
13309;SDS011;6723;48.256;16.402;2023-11-22T03:34:18;5.30;;;4.80;;
13309;SDS011;6723;48.256;16.402;2023-11-22T03:36:44;6.30;;;4.83;;
13309;SDS011;6723;48.256;16.402;2023-11-22T03:39:10;6.07;;;5.17;;
13309;SDS011;6723;48.256;16.402;2023-11-22T03:41:36;4.97;;;4.47;;
13309;SDS011;6723;48.256;16.402;2023-11-22T03:44:05;5.40;;;4.37;;
13309;SDS011;6723;48.256;16.402;2023-11-22T03:46:37;6.40;;;5.20;;
13309;SDS011;6723;48.256;16.402;2023-11-22T03:49:04;6.47;;;4.87;;
13309;SDS011;6723;48.256;16.402;2023-11-22T03:51:33;8.30;;;4.60;;
13309;SDS011;6723;48.256;16.402;2023-11-22T03:54:01;5.83;;;5.20;;
13309;SDS011;6723;48.256;16.402;2023-11-22T03:56:30;6.00;;;5.10;;
13309;SDS011;6723;48.256;16.402;2023-11-22T03:58:56;5.23;;;4.73;;
13309;SDS011;6723;48.256;16.402;2023-11-22T04:01:22;7.03;;;5.40;;
13309;SDS011;6723;48.256;16.402;2023-11-22T04:03:47;6.07;;;5.40;;
13309;SDS011;6723;48.256;16.402;2023-11-22T04:06:14;6.67;;;5.37;;
13309;SDS011;6723;48.256;16.402;2023-11-22T04:08:45;6.87;;;5.80;;
13309;SDS011;6723;48.256;16.402;2023-11-22T04:11:14;8.30;;;5.80;;
13309;SDS011;6723;48.256;16.402;2023-11-22T04:13:41;6.90;;;6.00;;
13309;SDS011;6723;48.256;16.402;2023-11-22T04:16:07;6.87;;;5.90;;
13309;SDS011;6723;48.256;16.402;2023-11-22T04:18:39;7.40;;;5.90;;
13309;SDS011;6723;48.256;16.402;2023-11-22T04:21:06;7.70;;;6.30;;
13309;SDS011;6723;48.256;16.402;2023-11-22T04:23:33;8.60;;;6.47;;
13309;SDS011;6723;48.256;16.402;2023-11-22T04:26:00;7.63;;;6.63;;
13309;SDS011;6723;48.256;16.402;2023-11-22T04:28:27;9.93;;;6.83;;
13309;SDS011;6723;48.256;16.402;2023-11-22T04:30:55;7.30;;;6.57;;
13309;SDS011;6723;48.256;16.402;2023-11-22T04:33:22;8.00;;;6.20;;
13309;SDS011;6723;48.256;16.402;2023-11-22T04:35:48;8.63;;;6.60;;
13309;SDS011;6723;48.256;16.402;2023-11-22T04:38:15;7.50;;;6.80;;
13309;SDS011;6723;48.256;16.402;2023-11-22T04:40:41;8.50;;;6.90;;
13309;SDS011;6723;48.256;16.402;2023-11-22T04:43:07;9.97;;;7.40;;
13309;SDS011;6723;48.256;16.402;2023-11-22T04:45:33;10.67;;;7.80;;
13309;SDS011;6723;48.256;16.402;2023-11-22T04:47:59;9.40;;;7.60;;
13309;SDS011;6723;48.256;16.402;2023-11-22T04:50:25;8.17;;;7.17;;
13309;SDS011;6723;48.256;16.402;2023-11-22T04:52:51;10.07;;;7.90;;
13309;SDS011;6723;48.256;16.402;2023-11-22T04:55:17;9.43;;;7.73;;
13309;SDS011;6723;48.256;16.402;2023-11-22T04:57:48;10.10;;;8.10;;
13309;SDS011;6723;48.256;16.402;2023-11-22T05:00:15;9.00;;;7.37;;
13309;SDS011;6723;48.256;16.402;2023-11-22T05:02:42;10.80;;;8.57;;
13309;SDS011;6723;48.256;16.402;2023-11-22T05:05:08;9.23;;;8.07;;
13309;SDS011;6723;48.256;16.402;2023-11-22T05:07:37;10.20;;;8.13;;
13309;SDS011;6723;48.256;16.402;2023-11-22T05:10:03;11.13;;;8.00;;
13309;SDS011;6723;48.256;16.402;2023-11-22T05:12:31;9.07;;;7.53;;
13309;SDS011;6723;48.256;16.402;2023-11-22T05:14:57;10.47;;;7.90;;
13309;SDS011;6723;48.256;16.402;2023-11-22T05:17:23;9.03;;;7.60;;
13309;SDS011;6723;48.256;16.402;2023-11-22T05:19:49;10.10;;;8.07;;
13309;SDS011;6723;48.256;16.402;2023-11-22T05:22:15;9.60;;;7.80;;
13309;SDS011;6723;48.256;16.402;2023-11-22T05:24:41;10.57;;;7.63;;
13309;SDS011;6723;48.256;16.402;2023-11-22T05:27:07;10.27;;;6.97;;
13309;SDS011;6723;48.256;16.402;2023-11-22T05:29:34;8.83;;;6.90;;
13309;SDS011;6723;48.256;16.402;2023-11-22T05:32:00;8.67;;;6.77;;
13309;SDS011;6723;48.256;16.402;2023-11-22T05:34:28;7.20;;;5.80;;
13309;SDS011;6723;48.256;16.402;2023-11-22T05:36:54;9.20;;;5.87;;
13309;SDS011;6723;48.256;16.402;2023-11-22T05:39:21;6.87;;;6.03;;
13309;SDS011;6723;48.256;16.402;2023-11-22T05:41:50;8.00;;;6.00;;
13309;SDS011;6723;48.256;16.402;2023-11-22T05:44:17;9.27;;;5.93;;
13309;SDS011;6723;48.256;16.402;2023-11-22T05:46:43;8.83;;;6.03;;
13309;SDS011;6723;48.256;16.402;2023-11-22T05:49:09;10.50;;;7.13;;
13309;SDS011;6723;48.256;16.402;2023-11-22T05:51:35;8.47;;;7.20;;
13309;SDS011;6723;48.256;16.402;2023-11-22T05:54:02;9.50;;;7.23;;
13309;SDS011;6723;48.256;16.402;2023-11-22T05:56:29;10.23;;;7.90;;
13309;SDS011;6723;48.256;16.402;2023-11-22T05:58:54;12.93;;;7.60;;
13309;SDS011;6723;48.256;16.402;2023-11-22T06:01:20;10.93;;;7.97;;
13309;SDS011;6723;48.256;16.402;2023-11-22T06:03:46;10.63;;;7.47;;
13309;SDS011;6723;48.256;16.402;2023-11-22T06:06:13;9.23;;;7.60;;
13309;SDS011;6723;48.256;16.402;2023-11-22T06:08:39;10.20;;;7.87;;
13309;SDS011;6723;48.256;16.402;2023-11-22T06:11:05;10.90;;;8.30;;
13309;SDS011;6723;48.256;16.402;2023-11-22T06:13:32;10.53;;;7.57;;
13309;SDS011;6723;48.256;16.402;2023-11-22T06:15:57;10.97;;;7.80;;
13309;SDS011;6723;48.256;16.402;2023-11-22T06:18:23;9.93;;;7.43;;
13309;SDS011;6723;48.256;16.402;2023-11-22T06:20:58;11.13;;;8.13;;
13309;SDS011;6723;48.256;16.402;2023-11-22T06:23:24;10.37;;;7.37;;
13309;SDS011;6723;48.256;16.402;2023-11-22T06:25:49;11.37;;;7.83;;
13309;SDS011;6723;48.256;16.402;2023-11-22T06:28:15;14.87;;;7.77;;
13309;SDS011;6723;48.256;16.402;2023-11-22T06:30:43;12.50;;;8.30;;
13309;SDS011;6723;48.256;16.402;2023-11-22T06:33:08;9.90;;;7.97;;
13309;SDS011;6723;48.256;16.402;2023-11-22T06:35:35;14.07;;;7.70;;
13309;SDS011;6723;48.256;16.402;2023-11-22T06:38:01;10.93;;;7.80;;
13309;SDS011;6723;48.256;16.402;2023-11-22T06:40:27;12.27;;;7.90;;
13309;SDS011;6723;48.256;16.402;2023-11-22T06:42:55;12.80;;;8.27;;
13309;SDS011;6723;48.256;16.402;2023-11-22T06:45:21;12.50;;;8.00;;
13309;SDS011;6723;48.256;16.402;2023-11-22T06:47:47;12.63;;;7.10;;
13309;SDS011;6723;48.256;16.402;2023-11-22T06:50:15;10.57;;;7.40;;
13309;SDS011;6723;48.256;16.402;2023-11-22T06:52:41;9.30;;;6.20;;
13309;SDS011;6723;48.256;16.402;2023-11-22T06:55:08;11.03;;;6.27;;
13309;SDS011;6723;48.256;16.402;2023-11-22T06:57:38;10.20;;;6.00;;
13309;SDS011;6723;48.256;16.402;2023-11-22T07:00:04;13.23;;;6.73;;
13309;SDS011;6723;48.256;16.402;2023-11-22T07:02:31;9.90;;;6.27;;
13309;SDS011;6723;48.256;16.402;2023-11-22T07:04:57;14.13;;;6.23;;
13309;SDS011;6723;48.256;16.402;2023-11-22T07:07:26;12.40;;;6.90;;
13309;SDS011;6723;48.256;16.402;2023-11-22T07:09:52;13.27;;;9.10;;
13309;SDS011;6723;48.256;16.402;2023-11-22T07:12:19;10.87;;;7.77;;
13309;SDS011;6723;48.256;16.402;2023-11-22T07:14:45;13.77;;;7.10;;
13309;SDS011;6723;48.256;16.402;2023-11-22T07:17:11;9.70;;;6.33;;
13309;SDS011;6723;48.256;16.402;2023-11-22T07:19:38;10.33;;;7.00;;
13309;SDS011;6723;48.256;16.402;2023-11-22T07:22:04;14.73;;;8.80;;
13309;SDS011;6723;48.256;16.402;2023-11-22T07:24:44;13.47;;;7.60;;
13309;SDS011;6723;48.256;16.402;2023-11-22T07:27:14;12.97;;;6.63;;
13309;SDS011;6723;48.256;16.402;2023-11-22T07:29:40;10.93;;;6.93;;
13309;SDS011;6723;48.256;16.402;2023-11-22T07:32:07;10.83;;;6.27;;
13309;SDS011;6723;48.256;16.402;2023-11-22T07:34:36;11.40;;;6.97;;
13309;SDS011;6723;48.256;16.402;2023-11-22T07:37:04;9.83;;;6.23;;
13309;SDS011;6723;48.256;16.402;2023-11-22T07:39:34;9.30;;;6.40;;
13309;SDS011;6723;48.256;16.402;2023-11-22T07:42:02;10.60;;;6.60;;
13309;SDS011;6723;48.256;16.402;2023-11-22T07:44:27;7.47;;;6.47;;
13309;SDS011;6723;48.256;16.402;2023-11-22T07:46:57;8.33;;;6.40;;
13309;SDS011;6723;48.256;16.402;2023-11-22T07:49:25;8.20;;;6.13;;
13309;SDS011;6723;48.256;16.402;2023-11-22T07:51:51;6.47;;;5.07;;
13309;SDS011;6723;48.256;16.402;2023-11-22T07:54:18;7.77;;;5.27;;
13309;SDS011;6723;48.256;16.402;2023-11-22T07:56:50;10.53;;;5.40;;
13309;SDS011;6723;48.256;16.402;2023-11-22T07:59:18;8.00;;;5.20;;
13309;SDS011;6723;48.256;16.402;2023-11-22T08:01:44;8.17;;;5.63;;
13309;SDS011;6723;48.256;16.402;2023-11-22T08:04:13;8.17;;;5.40;;
13309;SDS011;6723;48.256;16.402;2023-11-22T08:06:40;5.63;;;4.80;;
13309;SDS011;6723;48.256;16.402;2023-11-22T08:09:06;6.30;;;5.17;;
13309;SDS011;6723;48.256;16.402;2023-11-22T08:11:33;8.00;;;5.33;;
13309;SDS011;6723;48.256;16.402;2023-11-22T08:14:00;7.67;;;5.70;;
13309;SDS011;6723;48.256;16.402;2023-11-22T08:16:27;8.40;;;5.53;;
13309;SDS011;6723;48.256;16.402;2023-11-22T08:18:52;6.83;;;5.67;;
13309;SDS011;6723;48.256;16.402;2023-11-22T08:21:19;6.40;;;5.27;;
13309;SDS011;6723;48.256;16.402;2023-11-22T08:23:48;8.30;;;6.00;;
13309;SDS011;6723;48.256;16.402;2023-11-22T08:26:14;7.23;;;6.00;;
13309;SDS011;6723;48.256;16.402;2023-11-22T08:28:41;6.97;;;6.00;;
13309;SDS011;6723;48.256;16.402;2023-11-22T08:31:08;12.27;;;5.77;;
13309;SDS011;6723;48.256;16.402;2023-11-22T08:33:36;7.67;;;5.53;;
13309;SDS011;6723;48.256;16.402;2023-11-22T08:36:04;9.47;;;6.57;;
13309;SDS011;6723;48.256;16.402;2023-11-22T08:38:37;11.27;;;6.77;;
13309;SDS011;6723;48.256;16.402;2023-11-22T08:41:06;12.27;;;6.77;;
13309;SDS011;6723;48.256;16.402;2023-11-22T08:43:33;8.00;;;6.13;;
13309;SDS011;6723;48.256;16.402;2023-11-22T08:46:00;11.67;;;7.27;;
13309;SDS011;6723;48.256;16.402;2023-11-22T08:48:32;9.50;;;6.60;;
13309;SDS011;6723;48.256;16.402;2023-11-22T08:50:59;7.93;;;6.53;;
13309;SDS011;6723;48.256;16.402;2023-11-22T08:53:26;7.53;;;6.03;;
13309;SDS011;6723;48.256;16.402;2023-11-22T08:55:55;7.07;;;5.90;;
13309;SDS011;6723;48.256;16.402;2023-11-22T08:58:21;9.20;;;5.93;;
13309;SDS011;6723;48.256;16.402;2023-11-22T09:00:47;8.83;;;6.60;;
13309;SDS011;6723;48.256;16.402;2023-11-22T09:03:13;9.30;;;6.80;;
13309;SDS011;6723;48.256;16.402;2023-11-22T09:05:42;9.17;;;6.50;;
13309;SDS011;6723;48.256;16.402;2023-11-22T09:08:09;8.53;;;6.63;;
13309;SDS011;6723;48.256;16.402;2023-11-22T09:10:38;8.07;;;5.90;;
13309;SDS011;6723;48.256;16.402;2023-11-22T09:13:06;7.60;;;6.13;;
13309;SDS011;6723;48.256;16.402;2023-11-22T09:15:32;9.53;;;6.03;;
13309;SDS011;6723;48.256;16.402;2023-11-22T09:17:59;7.53;;;6.60;;
13309;SDS011;6723;48.256;16.402;2023-11-22T09:20:25;9.13;;;6.90;;
13309;SDS011;6723;48.256;16.402;2023-11-22T09:22:54;8.97;;;6.67;;
13309;SDS011;6723;48.256;16.402;2023-11-22T09:25:21;9.20;;;6.83;;
13309;SDS011;6723;48.256;16.402;2023-11-22T09:27:52;7.17;;;6.20;;
13309;SDS011;6723;48.256;16.402;2023-11-22T09:30:28;6.93;;;5.63;;
13309;SDS011;6723;48.256;16.402;2023-11-22T09:32:58;8.90;;;6.40;;
13309;SDS011;6723;48.256;16.402;2023-11-22T09:35:25;6.73;;;5.83;;
13309;SDS011;6723;48.256;16.402;2023-11-22T09:37:51;11.30;;;6.77;;
13309;SDS011;6723;48.256;16.402;2023-11-22T09:40:17;10.03;;;6.10;;
13309;SDS011;6723;48.256;16.402;2023-11-22T09:42:44;7.10;;;5.53;;
13309;SDS011;6723;48.256;16.402;2023-11-22T09:45:19;7.67;;;5.70;;
13309;SDS011;6723;48.256;16.402;2023-11-22T09:47:46;7.50;;;6.10;;
13309;SDS011;6723;48.256;16.402;2023-11-22T09:50:19;6.87;;;5.83;;
13309;SDS011;6723;48.256;16.402;2023-11-22T09:52:52;7.27;;;5.97;;
13309;SDS011;6723;48.256;16.402;2023-11-22T09:55:21;7.80;;;6.27;;
13309;SDS011;6723;48.256;16.402;2023-11-22T09:57:53;8.07;;;5.57;;
13309;SDS011;6723;48.256;16.402;2023-11-22T10:00:20;8.07;;;5.97;;
13309;SDS011;6723;48.256;16.402;2023-11-22T10:02:49;7.23;;;5.63;;
13309;SDS011;6723;48.256;16.402;2023-11-22T10:05:15;8.63;;;6.00;;
13309;SDS011;6723;48.256;16.402;2023-11-22T10:07:41;7.63;;;5.80;;
13309;SDS011;6723;48.256;16.402;2023-11-22T10:10:07;6.87;;;5.83;;
13309;SDS011;6723;48.256;16.402;2023-11-22T10:12:36;7.47;;;5.63;;
13309;SDS011;6723;48.256;16.402;2023-11-22T10:17:37;10.50;;;5.90;;
13309;SDS011;6723;48.256;16.402;2023-11-22T10:20:04;7.23;;;5.40;;
13309;SDS011;6723;48.256;16.402;2023-11-22T10:22:45;7.80;;;6.10;;
13309;SDS011;6723;48.256;16.402;2023-11-22T10:25:15;7.80;;;5.90;;
13309;SDS011;6723;48.256;16.402;2023-11-22T10:27:47;7.63;;;6.50;;
13309;SDS011;6723;48.256;16.402;2023-11-22T10:30:13;7.80;;;6.10;;
13309;SDS011;6723;48.256;16.402;2023-11-22T10:32:42;8.50;;;6.40;;
13309;SDS011;6723;48.256;16.402;2023-11-22T10:35:08;14.67;;;6.57;;
13309;SDS011;6723;48.256;16.402;2023-11-22T10:37:37;8.93;;;6.43;;
13309;SDS011;6723;48.256;16.402;2023-11-22T10:40:04;9.07;;;5.77;;
13309;SDS011;6723;48.256;16.402;2023-11-22T10:42:31;8.60;;;6.27;;
13309;SDS011;6723;48.256;16.402;2023-11-22T10:44:59;6.77;;;5.90;;
13309;SDS011;6723;48.256;16.402;2023-11-22T10:47:28;6.90;;;6.13;;
13309;SDS011;6723;48.256;16.402;2023-11-22T10:49:55;10.47;;;6.47;;
13309;SDS011;6723;48.256;16.402;2023-11-22T10:52:21;22.27;;;7.73;;
13309;SDS011;6723;48.256;16.402;2023-11-22T10:54:53;12.23;;;6.97;;
13309;SDS011;6723;48.256;16.402;2023-11-22T10:57:27;10.37;;;7.43;;
13309;SDS011;6723;48.256;16.402;2023-11-22T10:59:57;8.33;;;7.07;;
13309;SDS011;6723;48.256;16.402;2023-11-22T11:02:31;8.20;;;6.87;;
13309;SDS011;6723;48.256;16.402;2023-11-22T11:05:03;10.37;;;7.83;;
13309;SDS011;6723;48.256;16.402;2023-11-22T11:07:49;8.90;;;6.73;;
13309;SDS011;6723;48.256;16.402;2023-11-22T11:10:20;8.77;;;7.30;;
13309;SDS011;6723;48.256;16.402;2023-11-22T11:12:47;9.63;;;7.20;;
13309;SDS011;6723;48.256;16.402;2023-11-22T11:15:14;8.27;;;7.37;;
13309;SDS011;6723;48.256;16.402;2023-11-22T11:17:42;11.83;;;8.43;;
13309;SDS011;6723;48.256;16.402;2023-11-22T11:20:13;9.40;;;7.43;;
13309;SDS011;6723;48.256;16.402;2023-11-22T11:22:42;9.53;;;7.50;;
13309;SDS011;6723;48.256;16.402;2023-11-22T11:25:13;9.40;;;7.57;;
13309;SDS011;6723;48.256;16.402;2023-11-22T11:27:43;9.20;;;7.43;;
13309;SDS011;6723;48.256;16.402;2023-11-22T11:33:09;16.50;;;7.93;;
13309;SDS011;6723;48.256;16.402;2023-11-22T11:35:48;10.70;;;7.67;;
13309;SDS011;6723;48.256;16.402;2023-11-22T11:38:15;36.53;;;10.97;;
13309;SDS011;6723;48.256;16.402;2023-11-22T11:40:48;27.10;;;8.67;;
13309;SDS011;6723;48.256;16.402;2023-11-22T11:43:15;13.07;;;9.17;;
13309;SDS011;6723;48.256;16.402;2023-11-22T11:45:47;13.67;;;9.23;;
13309;SDS011;6723;48.256;16.402;2023-11-22T11:48:13;19.10;;;8.70;;
13309;SDS011;6723;48.256;16.402;2023-11-22T11:50:41;13.77;;;9.13;;
13309;SDS011;6723;48.256;16.402;2023-11-22T11:53:08;13.60;;;9.30;;
13309;SDS011;6723;48.256;16.402;2023-11-22T11:55:38;13.53;;;9.20;;
13309;SDS011;6723;48.256;16.402;2023-11-22T11:58:04;17.43;;;9.07;;
13309;SDS011;6723;48.256;16.402;2023-11-22T12:00:37;13.27;;;9.70;;
13309;SDS011;6723;48.256;16.402;2023-11-22T12:03:06;12.47;;;9.60;;
13309;SDS011;6723;48.256;16.402;2023-11-22T12:05:35;12.23;;;9.20;;
13309;SDS011;6723;48.256;16.402;2023-11-22T12:08:04;11.60;;;9.03;;
13309;SDS011;6723;48.256;16.402;2023-11-22T12:10:30;12.33;;;9.60;;
13309;SDS011;6723;48.256;16.402;2023-11-22T12:12:57;13.10;;;9.20;;
13309;SDS011;6723;48.256;16.402;2023-11-22T12:15:24;12.03;;;9.37;;
13309;SDS011;6723;48.256;16.402;2023-11-22T12:17:50;12.27;;;9.40;;
13309;SDS011;6723;48.256;16.402;2023-11-22T12:20:19;13.93;;;10.33;;
13309;SDS011;6723;48.256;16.402;2023-11-22T12:22:49;15.10;;;10.50;;
13309;SDS011;6723;48.256;16.402;2023-11-22T12:25:15;12.40;;;10.83;;
13309;SDS011;6723;48.256;16.402;2023-11-22T12:27:41;13.03;;;11.10;;
13309;SDS011;6723;48.256;16.402;2023-11-22T12:30:09;15.07;;;10.90;;
13309;SDS011;6723;48.256;16.402;2023-11-22T12:32:52;14.73;;;11.27;;
13309;SDS011;6723;48.256;16.402;2023-11-22T12:35:18;16.40;;;11.37;;
13309;SDS011;6723;48.256;16.402;2023-11-22T12:37:44;13.17;;;10.90;;
13309;SDS011;6723;48.256;16.402;2023-11-22T12:40:12;16.17;;;11.83;;
13309;SDS011;6723;48.256;16.402;2023-11-22T12:42:46;16.00;;;11.77;;
13309;SDS011;6723;48.256;16.402;2023-11-22T12:45:17;18.07;;;11.90;;
13309;SDS011;6723;48.256;16.402;2023-11-22T12:47:52;14.03;;;11.10;;
13309;SDS011;6723;48.256;16.402;2023-11-22T12:50:34;13.43;;;10.07;;
13309;SDS011;6723;48.256;16.402;2023-11-22T12:53:07;13.70;;;10.70;;
13309;SDS011;6723;48.256;16.402;2023-11-22T12:55:36;15.37;;;10.80;;
13309;SDS011;6723;48.256;16.402;2023-11-22T12:58:13;13.50;;;10.80;;
13309;SDS011;6723;48.256;16.402;2023-11-22T13:00:39;16.40;;;12.53;;
13309;SDS011;6723;48.256;16.402;2023-11-22T13:03:06;16.57;;;11.07;;
13309;SDS011;6723;48.256;16.402;2023-11-22T13:05:39;14.13;;;9.57;;
13309;SDS011;6723;48.256;16.402;2023-11-22T13:08:08;12.13;;;9.60;;
13309;SDS011;6723;48.256;16.402;2023-11-22T13:10:51;13.47;;;10.33;;
13309;SDS011;6723;48.256;16.402;2023-11-22T13:13:20;14.03;;;10.07;;
13309;SDS011;6723;48.256;16.402;2023-11-22T13:15:47;14.83;;;10.47;;
13309;SDS011;6723;48.256;16.402;2023-11-22T13:18:14;11.63;;;9.80;;
13309;SDS011;6723;48.256;16.402;2023-11-22T13:20:44;15.27;;;11.40;;
13309;SDS011;6723;48.256;16.402;2023-11-22T13:23:10;16.97;;;11.13;;
13309;SDS011;6723;48.256;16.402;2023-11-22T13:25:39;16.00;;;10.33;;
13309;SDS011;6723;48.256;16.402;2023-11-22T13:28:06;18.07;;;10.13;;
13309;SDS011;6723;48.256;16.402;2023-11-22T13:30:33;15.10;;;10.63;;
13309;SDS011;6723;48.256;16.402;2023-11-22T13:33:00;11.40;;;9.63;;
13309;SDS011;6723;48.256;16.402;2023-11-22T13:35:28;16.13;;;10.00;;
13309;SDS011;6723;48.256;16.402;2023-11-22T13:38:02;13.73;;;9.97;;
13309;SDS011;6723;48.256;16.402;2023-11-22T13:40:28;13.40;;;10.17;;
13309;SDS011;6723;48.256;16.402;2023-11-22T13:42:57;11.53;;;9.67;;
13309;SDS011;6723;48.256;16.402;2023-11-22T13:45:23;13.50;;;10.57;;
13309;SDS011;6723;48.256;16.402;2023-11-22T13:47:53;15.50;;;10.60;;
13309;SDS011;6723;48.256;16.402;2023-11-22T13:50:25;12.73;;;10.67;;
13309;SDS011;6723;48.256;16.402;2023-11-22T13:52:53;14.00;;;10.87;;
13309;SDS011;6723;48.256;16.402;2023-11-22T13:55:20;13.37;;;10.20;;
13309;SDS011;6723;48.256;16.402;2023-11-22T13:57:50;12.73;;;11.07;;
13309;SDS011;6723;48.256;16.402;2023-11-22T14:00:16;12.83;;;10.80;;
13309;SDS011;6723;48.256;16.402;2023-11-22T14:02:52;12.17;;;10.20;;
13309;SDS011;6723;48.256;16.402;2023-11-22T14:05:24;15.43;;;10.43;;
13309;SDS011;6723;48.256;16.402;2023-11-22T14:07:51;13.63;;;10.40;;
13309;SDS011;6723;48.256;16.402;2023-11-22T14:10:18;13.03;;;10.20;;
13309;SDS011;6723;48.256;16.402;2023-11-22T14:12:44;15.27;;;10.57;;
13309;SDS011;6723;48.256;16.402;2023-11-22T14:15:13;12.07;;;10.53;;
13309;SDS011;6723;48.256;16.402;2023-11-22T14:17:39;12.97;;;10.30;;
13309;SDS011;6723;48.256;16.402;2023-11-22T14:20:10;13.23;;;10.30;;
13309;SDS011;6723;48.256;16.402;2023-11-22T14:22:37;12.43;;;8.80;;
13309;SDS011;6723;48.256;16.402;2023-11-22T14:25:05;12.43;;;9.73;;
13309;SDS011;6723;48.256;16.402;2023-11-22T14:27:37;13.27;;;9.93;;
13309;SDS011;6723;48.256;16.402;2023-11-22T14:30:03;14.03;;;10.00;;
13309;SDS011;6723;48.256;16.402;2023-11-22T14:32:33;13.57;;;9.67;;
13309;SDS011;6723;48.256;16.402;2023-11-22T14:35:05;13.30;;;9.13;;
13309;SDS011;6723;48.256;16.402;2023-11-22T14:37:34;22.93;;;12.13;;
13309;SDS011;6723;48.256;16.402;2023-11-22T14:40:02;19.57;;;13.80;;
13309;SDS011;6723;48.256;16.402;2023-11-22T14:42:39;15.83;;;10.40;;
13309;SDS011;6723;48.256;16.402;2023-11-22T14:45:10;15.37;;;9.60;;
13309;SDS011;6723;48.256;16.402;2023-11-22T14:47:37;15.37;;;10.03;;
13309;SDS011;6723;48.256;16.402;2023-11-22T14:50:04;15.50;;;9.80;;